createdAt,value
2023-05-01T00:02:16.974Z,24.14
2023-05-01T00:06:18.560Z,24.13
2023-05-01T00:10:20.128Z,24.02
2023-05-01T00:14:21.561Z,24.23
2023-05-01T00:18:22.977Z,24.16
2023-05-01T00:22:24.440Z,24.31
2023-05-01T00:26:30.343Z,24.23
2023-05-01T00:30:35.219Z,24.20
2023-05-01T00:34:36.599Z,23.88
2023-05-01T00:38:37.935Z,24.12
2023-05-01T00:42:40.461Z,23.95
2023-05-01T00:46:43.583Z,23.97
2023-05-01T00:50:45.710Z,24.00
2023-05-01T00:54:52.088Z,23.94
2023-05-01T00:58:53.898Z,23.92
2023-05-01T01:02:55.598Z,23.57
2023-05-01T01:07:22.555Z,23.82
2023-05-01T01:11:34.611Z,24.16
2023-05-01T01:15:44.511Z,23.99
2023-05-01T01:20:19.174Z,23.99
2023-05-01T01:24:30.167Z,24.02
2023-05-01T01:28:56.647Z,24.09
2023-05-01T01:33:25.196Z,23.97
2023-05-01T01:37:37.592Z,24.00
2023-05-01T01:41:41.465Z,23.83
2023-05-01T01:45:57.814Z,23.77
2023-05-01T01:50:03.012Z,23.85
2023-05-01T01:54:05.504Z,23.75
2023-05-01T01:58:10.586Z,23.67
2023-05-01T02:02:14.003Z,23.60
2023-05-01T02:06:16.352Z,23.81
2023-05-01T02:10:18.882Z,23.63
2023-05-01T02:14:22.912Z,23.63
2023-05-01T02:18:28.639Z,23.77
2023-05-01T02:22:30.763Z,23.41
2023-05-01T02:26:38.642Z,23.56
2023-05-01T02:30:40.265Z,23.68
2023-05-01T02:34:42.030Z,23.67
2023-05-01T02:38:43.895Z,23.73
2023-05-01T02:42:48.516Z,23.61
2023-05-01T02:46:52.080Z,23.53
2023-05-01T02:50:55.798Z,23.58
2023-05-01T02:54:57.846Z,23.28
2023-05-01T02:58:59.259Z,23.56
2023-05-01T03:03:01.171Z,23.05
2023-05-01T03:07:02.637Z,23.40
2023-05-01T03:11:07.889Z,23.34
2023-05-01T03:15:09.698Z,23.39
2023-05-01T03:19:11.275Z,23.35
2023-05-01T03:23:12.582Z,23.14
2023-05-01T03:27:13.906Z,22.55
2023-05-01T03:31:15.256Z,23.16
2023-05-01T03:35:16.751Z,22.82
2023-05-01T03:39:18.148Z,23.01
2023-05-01T03:43:19.557Z,23.12
2023-05-01T03:47:20.882Z,23.01
2023-05-01T03:51:22.192Z,23.06
2023-05-01T03:55:23.516Z,23.06
2023-05-01T03:59:24.973Z,22.97
2023-05-01T04:03:26.941Z,22.84
2023-05-01T04:07:28.365Z,22.98
2023-05-01T04:11:29.742Z,22.87
2023-05-01T04:15:31.186Z,22.72
2023-05-01T04:19:32.468Z,22.82
2023-05-01T04:23:33.735Z,22.75
2023-05-01T04:27:35.056Z,22.61
2023-05-01T04:31:36.514Z,22.67
2023-05-01T04:35:39.190Z,22.69
2023-05-01T04:39:40.633Z,22.51
2023-05-01T04:43:42.004Z,22.75
2023-05-01T04:47:43.829Z,22.73
2023-05-01T04:51:45.813Z,22.88
2023-05-01T04:55:47.242Z,22.64
2023-05-01T04:59:48.585Z,22.86
2023-05-01T05:03:50.381Z,22.94
2023-05-01T05:07:52.115Z,22.99
2023-05-01T05:11:53.508Z,23.08
2023-05-01T05:15:55.098Z,22.98
2023-05-01T05:19:56.624Z,23.08
2023-05-01T05:23:58.208Z,23.14
2023-05-01T05:28:00.473Z,23.03
2023-05-01T05:32:02.063Z,23.33
2023-05-01T05:36:03.633Z,23.74
2023-05-01T05:40:05.664Z,23.37
2023-05-01T05:44:07.101Z,23.62
2023-05-01T05:48:08.427Z,23.85
2023-05-01T05:52:09.872Z,24.08
2023-05-01T05:56:11.221Z,24.25
2023-05-01T06:00:13.229Z,24.61
2023-05-01T06:04:15.025Z,24.49
2023-05-01T06:08:16.921Z,24.70
2023-05-01T06:12:18.270Z,24.73
2023-05-01T06:16:20.217Z,24.67
2023-05-01T06:20:21.697Z,24.64
2023-05-01T06:24:23.109Z,24.71
2023-05-01T06:28:24.438Z,24.69
2023-05-01T06:32:25.770Z,25.17
2023-05-01T06:36:27.718Z,24.90
2023-05-01T06:40:31.567Z,25.14
2023-05-01T06:44:33.080Z,25.03
2023-05-01T06:48:34.492Z,24.91
2023-05-01T06:52:36.038Z,25.04
2023-05-01T06:56:37.441Z,24.92
2023-05-01T07:00:38.937Z,24.65
2023-05-01T07:04:40.386Z,24.59
2023-05-01T07:08:41.718Z,23.79
2023-05-01T07:12:43.198Z,24.36
2023-05-01T07:16:44.580Z,24.48
2023-05-01T07:20:45.929Z,24.71
2023-05-01T07:24:47.224Z,24.91
2023-05-01T07:28:48.594Z,24.28
2023-05-01T07:32:50.595Z,25.74
2023-05-01T07:36:52.043Z,25.82
2023-05-01T07:40:53.903Z,26.46
2023-05-01T07:45:06.739Z,26.76
2023-05-01T07:49:08.158Z,25.88
2023-05-01T07:53:09.467Z,26.18
2023-05-01T07:57:10.854Z,26.03
2023-05-01T08:01:12.256Z,25.74
2023-05-01T08:05:14.295Z,25.87
2023-05-01T08:09:15.736Z,24.31
2023-05-01T08:13:17.176Z,25.33
2023-05-01T08:17:18.688Z,26.37
2023-05-01T08:21:20.084Z,26.89
2023-05-01T08:25:21.467Z,26.52
2023-05-01T08:29:22.831Z,27.19
2023-05-01T08:33:24.279Z,26.84
2023-05-01T08:37:25.770Z,27.43
2023-05-01T08:41:28.576Z,28.25
2023-05-01T08:45:36.167Z,27.40
2023-05-01T08:49:38.981Z,27.29
2023-05-01T08:53:42.003Z,26.78
2023-05-01T08:57:47.917Z,26.65
2023-05-01T09:01:51.146Z,27.44
2023-05-01T09:05:53.777Z,27.80
2023-05-01T09:09:55.408Z,28.71
2023-05-01T09:13:57.204Z,28.71
2023-05-01T09:18:03.191Z,28.39
2023-05-01T09:22:05.187Z,28.25
2023-05-01T09:26:08.035Z,28.59
2023-05-01T09:30:09.866Z,29.10
2023-05-01T09:34:11.326Z,29.76
2023-05-01T09:38:17.972Z,30.28
2023-05-01T09:42:24.402Z,30.56
2023-05-01T09:46:26.856Z,30.89
2023-05-01T09:50:30.927Z,29.86
2023-05-01T09:54:32.334Z,30.72
2023-05-01T09:58:33.623Z,29.30
2023-05-01T10:02:35.094Z,31.14
2023-05-01T10:06:37.017Z,32.41
2023-05-01T10:10:38.380Z,34.12
2023-05-01T10:14:51.423Z,33.95
2023-05-01T10:18:55.551Z,34.50
2023-05-01T10:22:56.951Z,35.95
2023-05-01T10:26:59.670Z,35.49
2023-05-01T10:31:02.269Z,36.83
2023-05-01T10:35:19.255Z,36.52
2023-05-01T10:39:30.702Z,37.21
2023-05-01T10:43:32.702Z,37.64
2023-05-01T10:47:35.232Z,33.93
2023-05-01T10:51:59.811Z,36.36
2023-05-01T10:56:01.614Z,35.96
2023-05-01T11:00:06.040Z,34.59
2023-05-01T11:04:27.876Z,33.20
2023-05-01T11:08:33.414Z,35.00
2023-05-01T11:12:48.383Z,34.76
2023-05-01T11:16:49.965Z,35.51
2023-05-01T11:20:51.650Z,33.21
2023-05-01T11:24:52.989Z,34.41
2023-05-01T11:28:55.642Z,34.69
2023-05-01T11:32:57.050Z,36.01
2023-05-01T11:36:58.377Z,36.07
2023-05-01T11:41:01.765Z,36.09
2023-05-01T11:45:13.212Z,35.08
2023-05-01T11:49:14.679Z,34.39
2023-05-01T11:53:16.600Z,34.63
2023-05-01T11:57:20.031Z,34.40
2023-05-01T12:01:21.424Z,34.40
2023-05-01T12:05:23.629Z,34.64
2023-05-01T12:09:29.332Z,34.15
2023-05-01T12:13:30.915Z,34.68
2023-05-01T12:17:33.094Z,33.91
2023-05-01T12:21:37.202Z,33.64
2023-05-01T12:25:39.990Z,33.43
2023-05-01T12:29:41.758Z,32.83
2023-05-01T12:33:53.485Z,34.04
2023-05-01T12:37:56.160Z,33.95
2023-05-01T12:41:57.705Z,33.53
2023-05-01T12:45:59.982Z,33.83
2023-05-01T12:50:03.628Z,33.98
2023-05-01T12:54:05.022Z,34.10
2023-05-01T12:58:06.526Z,33.67
2023-05-01T13:02:13.237Z,33.36
2023-05-01T13:06:16.199Z,31.76
2023-05-01T13:10:30.504Z,31.75
2023-05-01T13:14:40.518Z,32.59
2023-05-01T13:18:52.724Z,32.66
2023-05-01T13:22:54.449Z,32.91
2023-05-01T13:26:59.482Z,33.24
2023-05-01T13:31:00.803Z,33.51
2023-05-01T13:35:02.556Z,33.59
2023-05-01T13:39:04.100Z,33.01
2023-05-01T13:43:13.606Z,33.14
2023-05-01T13:47:17.528Z,33.13
2023-05-01T13:51:24.331Z,32.85
2023-05-01T13:55:25.856Z,31.86
2023-05-01T13:59:35.576Z,29.93
2023-05-01T14:03:40.887Z,30.30
2023-05-01T14:07:56.868Z,30.15
2023-05-01T14:11:58.725Z,28.83
2023-05-01T14:16:00.184Z,28.53
2023-05-01T14:20:02.483Z,28.11
2023-05-01T14:24:04.307Z,27.88
2023-05-01T14:28:09.501Z,27.00
2023-05-01T14:32:11.005Z,26.82
2023-05-01T14:36:12.909Z,24.78
2023-05-01T14:40:15.012Z,25.66
2023-05-01T14:44:19.283Z,26.03
2023-05-01T14:48:23.273Z,25.31
2023-05-01T14:52:24.697Z,25.62
2023-05-01T14:56:26.306Z,26.10
2023-05-01T15:00:27.932Z,25.69
2023-05-01T15:04:29.368Z,25.79
2023-05-01T15:08:32.350Z,25.71
2023-05-01T15:12:33.768Z,25.77
2023-05-01T15:16:35.372Z,25.79
2023-05-01T15:20:37.603Z,25.43
2023-05-01T15:24:39.296Z,25.77
2023-05-01T15:28:40.706Z,25.48
2023-05-01T15:32:42.252Z,25.72
2023-05-01T15:36:43.868Z,25.46
2023-05-01T15:40:45.712Z,25.39
2023-05-01T15:44:47.960Z,25.51
2023-05-01T15:48:49.562Z,25.47
2023-05-01T15:52:51.806Z,25.71
2023-05-01T15:56:53.894Z,25.03
2023-05-01T16:00:55.256Z,25.40
2023-05-01T16:04:56.776Z,25.57
2023-05-01T16:08:59.131Z,25.48
2023-05-01T16:13:01.536Z,25.80
2023-05-01T16:17:05.117Z,26.12
2023-05-01T16:21:09.058Z,26.27
2023-05-01T16:25:11.429Z,26.11
2023-05-01T16:29:13.093Z,26.59
2023-05-01T16:33:18.828Z,26.46
2023-05-01T16:37:24.390Z,26.63
2023-05-01T16:41:25.842Z,25.91
2023-05-01T16:45:27.859Z,26.28
2023-05-01T16:49:29.380Z,26.00
2023-05-01T16:53:32.120Z,26.00
2023-05-01T16:57:33.501Z,25.69
2023-05-01T17:01:35.554Z,25.92
2023-05-01T17:05:36.896Z,25.92
2023-05-01T17:09:38.252Z,26.07
2023-05-01T17:13:39.803Z,25.79
2023-05-01T17:17:41.246Z,25.64
2023-05-01T17:21:43.387Z,25.78
2023-05-01T17:25:44.804Z,25.39
2023-05-01T17:29:46.572Z,25.23
2023-05-01T17:33:48.184Z,25.38
2023-05-01T17:37:50.194Z,25.19
2023-05-01T17:41:51.561Z,24.48
2023-05-01T17:45:52.908Z,24.88
2023-05-01T17:49:54.344Z,24.66
2023-05-01T17:53:55.677Z,24.75
2023-05-01T17:57:56.989Z,24.60
2023-05-01T18:01:58.511Z,24.49
2023-05-01T18:06:01.710Z,24.56
2023-05-01T18:10:03.859Z,24.50
2023-05-01T18:14:05.426Z,24.41
2023-05-01T18:18:07.034Z,24.45
2023-05-01T18:22:08.803Z,24.25
2023-05-01T18:26:10.176Z,24.24
2023-05-01T18:30:12.029Z,24.27
2023-05-01T18:34:13.431Z,24.25
2023-05-01T18:38:14.777Z,24.19
2023-05-01T18:42:16.134Z,24.08
2023-05-01T18:46:17.857Z,23.89
2023-05-01T18:50:21.697Z,23.76
2023-05-01T18:54:23.234Z,23.75
2023-05-01T18:58:24.520Z,23.67
2023-05-01T19:02:25.819Z,23.59
2023-05-01T19:06:27.295Z,23.42
2023-05-01T19:10:28.843Z,23.46
2023-05-01T19:14:30.139Z,23.36
2023-05-01T19:18:33.136Z,23.35
2023-05-01T19:22:34.615Z,23.24
2023-05-01T19:26:35.889Z,23.26
2023-05-01T19:30:37.259Z,23.21
2023-05-01T19:34:38.554Z,23.17
2023-05-01T19:38:39.841Z,23.16
2023-05-01T19:42:41.103Z,23.03
2023-05-01T19:46:42.620Z,23.11
2023-05-01T19:50:50.723Z,23.03
2023-05-01T19:54:51.999Z,23.07
2023-05-01T19:58:54.759Z,22.91
2023-05-01T20:02:56.126Z,23.01
2023-05-01T20:06:57.560Z,22.98
2023-05-01T20:10:59.011Z,22.88
2023-05-01T20:15:01.293Z,22.85
2023-05-01T20:19:02.695Z,22.71
2023-05-01T20:23:18.878Z,22.66
2023-05-01T20:27:20.206Z,22.61
2023-05-01T20:31:22.092Z,22.76
2023-05-01T20:35:23.526Z,22.86
2023-05-01T20:39:25.080Z,22.68
2023-05-01T20:43:26.696Z,22.62
2023-05-01T20:47:29.340Z,22.83
2023-05-01T20:51:32.055Z,22.74
2023-05-01T20:55:33.391Z,22.67
2023-05-01T20:59:34.864Z,22.59
2023-05-01T21:03:36.375Z,22.43
2023-05-01T21:07:39.100Z,22.54
2023-05-01T21:11:40.904Z,22.45
2023-05-01T21:15:42.305Z,22.35
2023-05-01T21:19:46.465Z,22.37
2023-05-01T21:23:48.969Z,22.24
2023-05-01T21:27:51.160Z,22.24
2023-05-01T21:31:52.560Z,22.21
2023-05-01T21:35:53.968Z,22.20
2023-05-01T21:39:59.004Z,22.22
2023-05-01T21:44:03.497Z,22.25
2023-05-01T21:48:05.572Z,22.27
2023-05-01T21:52:08.787Z,22.25
2023-05-01T21:56:11.176Z,22.21
2023-05-01T22:00:13.165Z,22.09
2023-05-01T22:04:18.515Z,22.14
2023-05-01T22:08:19.948Z,22.31
2023-05-01T22:12:21.726Z,22.23
2023-05-01T22:16:23.238Z,22.22
2023-05-01T22:20:24.941Z,22.34
2023-05-01T22:24:26.249Z,22.31
2023-05-01T22:28:27.676Z,22.35
2023-05-01T22:32:29.123Z,22.39
2023-05-01T22:36:31.439Z,22.25
2023-05-01T22:40:32.930Z,22.35
2023-05-01T22:44:34.459Z,22.26
2023-05-01T22:48:35.815Z,22.43
2023-05-01T22:52:37.175Z,22.34
2023-05-01T22:56:38.593Z,22.27
2023-05-01T23:00:39.889Z,22.35
2023-05-01T23:04:41.290Z,22.15
2023-05-01T23:08:42.739Z,22.13
2023-05-01T23:12:45.687Z,22.23
2023-05-01T23:16:47.238Z,22.29
2023-05-01T23:20:49.932Z,22.16
2023-05-01T23:24:51.253Z,22.43
2023-05-01T23:28:53.374Z,22.40
2023-05-01T23:32:57.909Z,22.15
2023-05-01T23:36:59.257Z,22.52
2023-05-01T23:41:00.626Z,22.60
2023-05-01T23:45:02.205Z,22.65
2023-05-01T23:49:03.667Z,22.61
2023-05-01T23:53:09.549Z,22.69
2023-05-01T23:57:10.925Z,22.83
